Time;durP1;ratioP1;P1;durP2;ratioP2;P2;SDS_P1;SDS_P2;PMS_P1;PMS_P2;Temp;Humidity;BMP_temperature;BMP_pressure;BME280_temperature;BME280_humidity;BME280_pressure;Samples;Min_cycle;Max_cycle;Signal;HPM_P1;HPM_P2
2022/01/15 00:01:50;;;;;;;11.15;3.95;;;3.40;91.60;;;;;;5102165;28;20457;-48
2022/01/15 00:04:17;;;;;;;8.45;3.00;;;3.40;91.50;;;;;;5114103;28;20028;-48
2022/01/15 00:06:44;;;;;;;7.53;3.67;;;3.40;91.40;;;;;;5076821;28;20059;-49
2022/01/15 00:09:15;;;;;;;6.38;3.63;;;3.40;91.50;;;;;;5094828;28;20433;-48
2022/01/15 00:11:44;;;;;;;12.23;3.03;;;3.40;91.60;;;;;;5094675;28;20032;-49
2022/01/15 00:14:14;;;;;;;14.13;2.92;;;3.40;91.60;;;;;;5094986;28;20031;-49
2022/01/15 00:19:41;;;;;;;5.00;3.13;;;3.40;91.60;;;;;;5066009;28;20044;-48
2022/01/15 00:22:10;;;;;;;5.95;3.13;;;3.40;91.60;;;;;;5094459;28;20437;-49
2022/01/15 00:24:37;;;;;;;9.55;3.40;;;3.40;91.60;;;;;;5077885;28;20122;-50
2022/01/15 00:27:07;;;;;;;11.93;3.60;;;3.40;91.70;;;;;;5098912;28;20042;-48
2022/01/15 00:29:34;;;;;;;6.72;3.85;;;3.50;91.70;;;;;;5088970;28;20357;-50
2022/01/15 00:32:05;;;;;;;6.85;4.18;;;3.40;91.60;;;;;;5098605;28;20016;-48
2022/01/15 00:34:34;;;;;;;6.63;4.05;;;3.50;91.70;;;;;;5093924;28;20459;-49
2022/01/15 00:37:01;;;;;;;10.77;4.65;;;3.50;91.80;;;;;;5094325;28;20093;-52
2022/01/15 00:39:28;;;;;;;10.52;4.28;;;3.50;91.80;;;;;;5094971;28;20040;-50
2022/01/15 00:41:58;;;;;;;7.80;4.10;;;3.60;91.70;;;;;;5094508;28;20107;-49
2022/01/15 00:44:25;;;;;;;10.55;4.63;;;3.50;91.60;;;;;;5077497;28;20024;-49
2022/01/15 00:46:52;;;;;;;11.52;4.88;;;3.50;91.50;;;;;;5111489;28;20051;-49
2022/01/15 00:49:19;;;;;;;14.57;5.15;;;3.50;91.50;;;;;;5114470;28;20779;-48
2022/01/15 00:51:46;;;;;;;7.55;4.57;;;3.50;91.50;;;;;;5114421;28;20031;-52
2022/01/15 00:54:13;;;;;;;10.38;5.15;;;3.50;91.60;;;;;;5113563;28;20035;-51
2022/01/15 00:56:39;;;;;;;20.35;5.78;;;3.50;91.50;;;;;;5081144;28;20042;-51
2022/01/15 00:59:06;;;;;;;12.55;4.32;;;3.40;91.50;;;;;;5112950;28;20111;-50
2022/01/15 01:01:34;;;;;;;7.25;5.05;;;3.40;91.60;;;;;;5113594;28;20035;-53
2022/01/15 01:04:00;;;;;;;9.90;4.93;;;3.50;91.70;;;;;;5111781;28;20500;-48
2022/01/15 01:06:26;;;;;;;10.13;5.30;;;3.50;91.70;;;;;;5113005;28;20047;-48
2022/01/15 01:08:52;;;;;;;21.17;5.40;;;3.50;91.70;;;;;;5114086;28;20024;-50
2022/01/15 01:11:30;;;;;;;13.93;4.63;;;3.50;91.60;;;;;;5093748;28;20467;-48
2022/01/15 01:24:36;;;;;;;14.80;4.05;;;3.50;91.80;;;;;;5109890;28;20028;-50
2022/01/15 01:27:30;;;;;;;19.05;4.63;;;3.50;91.80;;;;;;5097431;28;20028;-51
2022/01/15 01:30:07;;;;;;;7.55;3.75;;;3.50;91.80;;;;;;5091893;28;20093;-49
2022/01/15 01:32:45;;;;;;;7.22;3.97;;;3.60;91.80;;;;;;5093898;28;20028;-49
2022/01/15 01:35:17;;;;;;;6.65;4.25;;;3.60;91.80;;;;;;5093588;28;20047;-51
2022/01/15 01:37:49;;;;;;;9.20;4.38;;;3.70;91.90;;;;;;5093607;28;20108;-49
2022/01/15 01:40:26;;;;;;;6.57;4.03;;;3.60;91.80;;;;;;5102400;28;20023;-48
2022/01/15 01:43:00;;;;;;;7.85;4.50;;;3.70;91.90;;;;;;5097725;28;20099;-54
2022/01/15 01:45:30;;;;;;;7.00;4.55;;;3.70;91.90;;;;;;5103377;28;20369;-48
2022/01/15 01:47:59;;;;;;;8.77;4.50;;;3.70;91.90;;;;;;5080090;28;20504;-48
2022/01/15 01:50:28;;;;;;;10.13;5.32;;;3.70;91.80;;;;;;5107849;28;20067;-49
2022/01/15 01:52:57;;;;;;;9.30;5.32;;;3.70;91.90;;;;;;5116331;28;20063;-48
2022/01/15 01:55:26;;;;;;;11.82;5.05;;;3.70;91.90;;;;;;5112936;28;20039;-50
2022/01/15 01:57:56;;;;;;;9.50;4.53;;;3.80;91.80;;;;;;5105816;28;20059;-48
2022/01/15 02:00:24;;;;;;;6.10;3.65;;;3.80;91.80;;;;;;5097564;28;20135;-48
2022/01/15 02:02:52;;;;;;;8.13;4.53;;;3.80;91.80;;;;;;5085713;28;20031;-49
2022/01/15 02:05:20;;;;;;;9.40;4.70;;;3.70;91.70;;;;;;5107635;28;20067;-51
2022/01/15 02:07:47;;;;;;;9.75;4.38;;;3.70;91.60;;;;;;5098180;28;20028;-49
2022/01/15 02:10:16;;;;;;;8.35;4.45;;;3.80;91.70;;;;;;5105848;28;20035;-49
2022/01/15 02:12:44;;;;;;;8.82;4.95;;;3.70;91.50;;;;;;5113271;28;20016;-53
2022/01/15 02:15:17;;;;;;;14.23;5.60;;;3.70;91.60;;;;;;5088225;28;20024;-49
2022/01/15 02:17:46;;;;;;;9.63;4.85;;;3.70;91.60;;;;;;5113751;28;20475;-51
2022/01/15 02:25:43;;;;;;;10.40;4.95;;;3.60;91.60;;;;;;5104642;28;20070;-53
2022/01/15 02:28:11;;;;;;;13.55;4.97;;;3.60;91.60;;;;;;5107009;28;20077;-52
2022/01/15 02:30:38;;;;;;;9.48;5.63;;;3.60;91.60;;;;;;5115436;28;20051;-49
2022/01/15 02:33:05;;;;;;;14.10;4.75;;;3.60;91.60;;;;;;5116926;28;20110;-48
2022/01/15 02:35:35;;;;;;;9.48;5.18;;;3.50;91.60;;;;;;5105690;28;20094;-53
2022/01/15 02:38:07;;;;;;;11.40;6.38;;;3.50;91.60;;;;;;5111095;28;20027;-52
2022/01/15 02:40:36;;;;;;;11.65;5.40;;;3.50;91.50;;;;;;5116716;28;20085;-50
2022/01/15 02:43:11;;;;;;;7.55;5.28;;;3.50;91.60;;;;;;5116109;28;20035;-50
2022/01/15 02:45:42;;;;;;;14.23;5.20;;;3.50;91.60;;;;;;5104172;28;20068;-49
2022/01/15 02:48:27;;;;;;;7.28;4.82;;;3.40;91.50;;;;;;5099518;28;20461;-51
2022/01/15 02:50:56;;;;;;;9.63;4.63;;;3.40;91.60;;;;;;5078985;28;20118;-52
2022/01/15 02:53:23;;;;;;;7.93;5.10;;;3.40;91.60;;;;;;5107484;28;20024;-52
2022/01/15 02:55:53;;;;;;;6.18;3.70;;;3.30;91.50;;;;;;5099378;28;20032;-51
2022/01/15 02:58:25;;;;;;;;;;;3.30;91.50;;;;;;5067296;28;20032;-52
2022/01/15 03:00:53;;;;;;;8.02;4.13;;;3.20;91.40;;;;;;5096226;28;19908;-52
2022/01/15 03:03:20;;;;;;;6.65;4.88;;;3.20;91.40;;;;;;5106058;28;20032;-53
2022/01/15 03:05:48;;;;;;;8.30;4.78;;;3.20;91.30;;;;;;5092405;28;20314;-49
2022/01/15 03:08:15;;;;;;;8.30;5.63;;;3.00;91.20;;;;;;5114770;28;20032;-50
2022/01/15 03:10:40;;;;;;;11.52;4.63;;;3.00;91.40;;;;;;5116381;28;20043;-51
2022/01/15 03:13:13;;;;;;;10.40;4.25;;;3.00;91.30;;;;;;5109935;28;20073;-51
2022/01/15 03:15:41;;;;;;;8.68;4.40;;;3.00;91.40;;;;;;5104384;28;20028;-51
2022/01/15 03:18:08;;;;;;;6.90;4.10;;;3.00;91.40;;;;;;5078175;28;20036;-56
2022/01/15 03:20:37;;;;;;;6.93;4.10;;;3.00;91.50;;;;;;5090187;28;20458;-52
2022/01/15 03:23:04;;;;;;;7.47;4.55;;;3.00;91.50;;;;;;5098095;28;20040;-52
2022/01/15 03:25:34;;;;;;;6.13;3.95;;;3.10;91.60;;;;;;5097680;28;20031;-51
2022/01/15 03:28:00;;;;;;;14.95;4.72;;;3.10;91.70;;;;;;5106580;28;20160;-55
2022/01/15 03:30:27;;;;;;;9.52;3.67;;;3.10;91.70;;;;;;5116010;28;20032;-55
2022/01/15 03:32:54;;;;;;;14.98;3.35;;;3.10;91.70;;;;;;5110079;28;20073;-52
2022/01/15 03:35:21;;;;;;;5.85;3.35;;;3.10;91.70;;;;;;5104735;28;20028;-52
2022/01/15 03:37:48;;;;;;;7.00;4.15;;;3.10;91.70;;;;;;5091837;28;20051;-54
2022/01/15 03:40:16;;;;;;;15.98;4.43;;;3.20;91.70;;;;;;5107981;28;20046;-51
2022/01/15 03:42:43;;;;;;;5.95;3.75;;;3.20;91.70;;;;;;5106634;28;20020;-52
2022/01/15 03:45:11;;;;;;;16.25;3.40;;;3.20;91.70;;;;;;5103632;28;20020;-54
2022/01/15 03:47:39;;;;;;;9.13;3.60;;;3.20;91.70;;;;;;5115575;28;20050;-54
2022/01/15 03:50:06;;;;;;;6.43;3.45;;;3.20;91.70;;;;;;5113819;28;20028;-50
2022/01/15 03:52:33;;;;;;;8.02;3.55;;;3.10;91.70;;;;;;5115718;28;20045;-52
2022/01/15 03:55:00;;;;;;;6.40;3.72;;;3.20;91.80;;;;;;5090169;28;20040;-55
2022/01/15 03:57:27;;;;;;;5.93;3.10;;;3.20;91.70;;;;;;5099406;28;20036;-49
2022/01/15 03:59:54;;;;;;;7.88;3.60;;;3.20;91.60;;;;;;5105991;28;20452;-51
2022/01/15 04:02:21;;;;;;;8.38;4.20;;;3.10;91.60;;;;;;5114721;28;20041;-50
2022/01/15 04:04:47;;;;;;;5.95;3.22;;;3.10;91.60;;;;;;5115090;28;20038;-49
2022/01/15 04:07:15;;;;;;;6.28;3.45;;;3.10;91.50;;;;;;5114850;28;20046;-51
2022/01/15 04:09:41;;;;;;;5.32;3.78;;;3.00;91.30;;;;;;5114048;28;20042;-49
2022/01/15 04:12:08;;;;;;;7.03;3.72;;;2.90;91.50;;;;;;5096336;28;20088;-49
2022/01/15 04:14:34;;;;;;;7.20;3.92;;;2.90;91.40;;;;;;5095667;28;20345;-49
2022/01/15 04:17:00;;;;;;;6.70;3.42;;;2.90;91.50;;;;;;5094823;28;20032;-49
2022/01/15 04:19:29;;;;;;;7.43;5.57;;;2.90;91.40;;;;;;5079066;28;20403;-51
2022/01/15 04:21:56;;;;;;;6.27;4.10;;;2.90;91.50;;;;;;5097247;28;20040;-49
2022/01/15 04:24:23;;;;;;;9.70;4.30;;;2.90;91.50;;;;;;5097627;28;20040;-50
2022/01/15 04:26:50;;;;;;;6.93;3.92;;;2.90;91.60;;;;;;5114808;28;20062;-51
2022/01/15 04:29:17;;;;;;;5.55;3.60;;;2.90;91.50;;;;;;5109901;28;20440;-53
2022/01/15 04:31:48;;;;;;;6.10;4.28;;;2.90;91.50;;;;;;5114801;28;20034;-52
2022/01/15 04:34:16;;;;;;;6.38;4.28;;;2.90;91.50;;;;;;5097045;28;20024;-49
2022/01/15 04:36:44;;;;;;;4.90;3.35;;;2.90;91.60;;;;;;5101648;28;20035;-52
2022/01/15 04:39:12;;;;;;;6.40;3.67;;;2.90;91.60;;;;;;5114711;28;20077;-56
2022/01/15 04:41:39;;;;;;;6.45;3.80;;;2.90;91.50;;;;;;5113855;28;20080;-53
2022/01/15 04:44:06;;;;;;;12.63;4.07;;;2.90;91.50;;;;;;5099278;28;20115;-51
2022/01/15 04:46:36;;;;;;;5.75;3.80;;;2.80;91.40;;;;;;5095124;28;20088;-51
2022/01/15 04:49:04;;;;;;;6.75;4.40;;;2.80;91.50;;;;;;5108598;28;20059;-51
2022/01/15 04:51:33;;;;;;;7.68;4.00;;;2.80;91.50;;;;;;5112958;28;20533;-51
2022/01/15 04:54:00;;;;;;;10.50;3.33;;;2.80;91.60;;;;;;5098524;28;20484;-54
2022/01/15 04:56:27;;;;;;;5.80;4.18;;;2.80;91.30;;;;;;5078756;28;20040;-51
2022/01/15 04:58:57;;;;;;;12.07;3.75;;;2.70;91.30;;;;;;5082085;28;20036;-55
2022/01/15 05:01:23;;;;;;;4.53;3.15;;;2.70;91.30;;;;;;5114442;28;20039;-51
2022/01/15 05:03:50;;;;;;;5.70;3.70;;;2.70;91.40;;;;;;5101113;28;20039;-53
2022/01/15 05:06:18;;;;;;;9.52;3.72;;;2.70;91.40;;;;;;5094926;28;20368;-52
2022/01/15 05:08:45;;;;;;;23.38;4.15;;;2.70;91.50;;;;;;5077247;28;20034;-52
2022/01/15 05:11:26;;;;;;;7.30;3.38;;;2.70;91.50;;;;;;5110440;28;20019;-55
2022/01/15 05:13:55;;;;;;;5.18;3.08;;;2.60;91.40;;;;;;5108616;28;20043;-51
2022/01/15 05:16:25;;;;;;;6.72;3.53;;;2.60;91.40;;;;;;5113467;28;20031;-51
2022/01/15 05:18:51;;;;;;;;;;;2.60;91.60;;;;;;5108418;28;20103;-52
2022/01/15 05:21:18;;;;;;;6.28;3.60;;;2.60;91.50;;;;;;5107446;28;20467;-54
2022/01/15 05:23:45;;;;;;;6.75;3.03;;;2.60;91.60;;;;;;5113538;28;20024;-52
2022/01/15 05:26:11;;;;;;;6.93;3.38;;;2.60;91.60;;;;;;5096560;28;20036;-51
2022/01/15 05:28:37;;;;;;;15.00;3.60;;;2.60;91.50;;;;;;5080790;28;20138;-55
2022/01/15 05:31:03;;;;;;;6.22;3.40;;;2.50;91.40;;;;;;5076284;28;20050;-52
2022/01/15 05:33:30;;;;;;;5.18;3.15;;;2.50;91.50;;;;;;5100326;28;20115;-52
2022/01/15 05:35:55;;;;;;;5.85;3.90;;;2.50;91.50;;;;;;5114101;28;20034;-55
2022/01/15 05:38:21;;;;;;;10.50;3.90;;;2.60;91.60;;;;;;5112176;28;20398;-52
2022/01/15 05:40:48;;;;;;;5.65;3.80;;;2.50;91.50;;;;;;5081615;28;20133;-56
2022/01/15 05:43:17;;;;;;;7.78;3.88;;;2.50;91.40;;;;;;5093655;28;20051;-50
2022/01/15 05:45:45;;;;;;;6.80;3.75;;;2.50;91.40;;;;;;5095101;28;20500;-54
2022/01/15 05:48:14;;;;;;;5.72;3.78;;;2.40;91.40;;;;;;5104989;28;20108;-52
2022/01/15 05:50:41;;;;;;;5.22;3.42;;;2.40;91.30;;;;;;5083260;28;20119;-55
2022/01/15 05:53:08;;;;;;;5.63;3.42;;;2.40;91.40;;;;;;5104102;28;20092;-56
2022/01/15 05:55:35;;;;;;;5.53;3.25;;;2.40;91.40;;;;;;5111852;28;20028;-53
2022/01/15 05:58:02;;;;;;;6.03;3.45;;;2.40;91.40;;;;;;5079809;28;20028;-54
2022/01/15 06:00:32;;;;;;;7.82;3.70;;;2.40;91.40;;;;;;5110003;28;20035;-55
2022/01/15 06:02:58;;;;;;;5.85;3.67;;;2.40;91.40;;;;;;5112719;28;20102;-55
2022/01/15 06:05:29;;;;;;;5.15;2.95;;;2.40;91.30;;;;;;5095851;28;20032;-55
2022/01/15 06:08:00;;;;;;;6.60;4.15;;;2.30;91.30;;;;;;5112878;28;20028;-52
2022/01/15 06:10:27;;;;;;;7.47;4.20;;;2.30;91.40;;;;;;5095691;28;20031;-57
2022/01/15 06:12:52;;;;;;;5.95;4.07;;;2.30;91.30;;;;;;5098253;28;20028;-55
2022/01/15 06:15:18;;;;;;;6.10;3.92;;;2.30;91.30;;;;;;5093878;28;20464;-55
2022/01/15 06:17:47;;;;;;;5.65;3.75;;;2.30;91.30;;;;;;5075589;28;20088;-53
2022/01/15 06:20:15;;;;;;;8.50;3.83;;;2.20;91.30;;;;;;5085612;28;20361;-54
2022/01/15 06:22:42;;;;;;;4.95;3.40;;;2.20;91.20;;;;;;5095697;28;20032;-53
2022/01/15 06:25:09;;;;;;;5.75;3.67;;;2.20;91.30;;;;;;5113607;28;20024;-54
2022/01/15 06:27:36;;;;;;;5.88;3.63;;;2.20;91.20;;;;;;5108307;28;20103;-57
2022/01/15 06:30:03;;;;;;;5.55;3.65;;;2.20;91.30;;;;;;5098022;28;20119;-56
2022/01/15 06:32:35;;;;;;;5.70;3.35;;;2.10;91.20;;;;;;5106761;28;20031;-55
2022/01/15 06:35:05;;;;;;;6.80;4.10;;;2.10;91.20;;;;;;5091470;28;20036;-54
2022/01/15 06:37:32;;;;;;;5.53;3.72;;;2.10;91.20;;;;;;5097866;28;20036;-53
2022/01/15 06:39:58;;;;;;;6.28;4.15;;;2.10;91.10;;;;;;5085772;28;20102;-53
2022/01/15 06:42:24;;;;;;;7.18;4.95;;;2.10;91.20;;;;;;5111508;28;20165;-57
2022/01/15 06:44:51;;;;;;;8.07;4.43;;;2.10;91.20;;;;;;5078630;28;20035;-53
2022/01/15 06:47:18;;;;;;;5.50;3.83;;;2.00;91.10;;;;;;5078725;28;20067;-57
2022/01/15 06:49:45;;;;;;;5.25;3.78;;;2.00;91.00;;;;;;5100918;28;20069;-57
2022/01/15 06:52:11;;;;;;;7.25;4.55;;;1.90;91.00;;;;;;5115141;28;20113;-57
2022/01/15 06:54:41;;;;;;;9.55;4.22;;;1.90;91.10;;;;;;5095929;28;20158;-54
2022/01/15 06:57:07;;;;;;;6.50;4.25;;;2.00;91.20;;;;;;5098903;28;20028;-58
2022/01/15 06:59:34;;;;;;;7.00;4.70;;;2.00;91.40;;;;;;5106051;28;20048;-57
2022/01/15 07:02:01;;;;;;;8.13;3.90;;;2.10;91.40;;;;;;5115650;28;20063;-55
2022/01/15 07:04:28;;;;;;;6.53;4.55;;;2.00;91.30;;;;;;5116313;28;20096;-56
2022/01/15 07:06:56;;;;;;;6.28;4.60;;;2.00;91.40;;;;;;5115485;28;20032;-56
2022/01/15 07:09:21;;;;;;;5.63;4.00;;;2.10;91.40;;;;;;5115536;28;20417;-55
2022/01/15 07:11:47;;;;;;;5.97;4.00;;;2.10;91.40;;;;;;5112941;28;20033;-56
2022/01/15 07:14:14;;;;;;;6.05;4.20;;;2.00;91.30;;;;;;5115527;28;20445;-57
2022/01/15 07:16:41;;;;;;;10.38;4.50;;;2.00;91.40;;;;;;5115918;28;20155;-56
2022/01/15 07:19:08;;;;;;;6.50;4.47;;;2.00;91.30;;;;;;5095195;28;20061;-57
2022/01/15 07:21:36;;;;;;;6.72;4.72;;;2.00;91.40;;;;;;5114675;28;20043;-56
2022/01/15 07:24:02;;;;;;;6.32;4.63;;;2.10;91.40;;;;;;5112985;28;20019;-56
2022/01/15 07:26:29;;;;;;;5.80;4.13;;;2.10;91.30;;;;;;5081018;28;20110;-55
2022/01/15 07:28:58;;;;;;;7.90;4.40;;;2.10;91.20;;;;;;5110750;28;20409;-53
2022/01/15 07:31:27;;;;;;;6.57;4.60;;;2.00;91.20;;;;;;5116127;28;20033;-50
2022/01/15 07:33:54;;;;;;;10.00;5.45;;;2.10;91.30;;;;;;5097514;28;20036;-56
2022/01/15 07:36:20;;;;;;;7.30;4.88;;;2.10;91.40;;;;;;5110450;28;20032;-58
2022/01/15 07:38:46;;;;;;;5.47;3.88;;;2.10;91.30;;;;;;5094969;28;20035;-51
2022/01/15 07:41:13;;;;;;;8.07;4.55;;;2.10;91.40;;;;;;5092912;28;20032;-51
2022/01/15 07:43:42;;;;;;;7.60;5.15;;;2.10;91.30;;;;;;5086061;28;20532;-53
2022/01/15 07:46:07;;;;;;;7.00;3.95;;;2.10;91.40;;;;;;5089806;28;20050;-53
2022/01/15 07:48:34;;;;;;;6.40;4.68;;;2.20;91.40;;;;;;5095748;28;20044;-55
2022/01/15 07:51:01;;;;;;;6.88;4.55;;;2.20;91.40;;;;;;5099520;28;20039;-50
2022/01/15 07:53:30;;;;;;;6.78;4.55;;;2.20;91.40;;;;;;5095414;28;20031;-53
2022/01/15 07:55:59;;;;;;;6.97;4.53;;;2.30;91.50;;;;;;5106127;28;20032;-52
2022/01/15 07:58:25;;;;;;;6.47;4.30;;;2.30;91.40;;;;;;5103517;28;20177;-53
2022/01/15 08:00:52;;;;;;;9.98;5.43;;;2.30;91.40;;;;;;5067837;28;20122;-55
2022/01/15 08:03:17;;;;;;;17.70;4.72;;;2.40;91.50;;;;;;5096795;28;20456;-53
2022/01/15 08:05:43;;;;;;;9.70;5.20;;;2.40;91.50;;;;;;5115163;28;20062;-51
2022/01/15 08:08:10;;;;;;;9.05;5.18;;;2.40;91.50;;;;;;5107031;28;20043;-55
2022/01/15 08:10:37;;;;;;;9.70;5.00;;;2.40;91.50;;;;;;5110348;28;20023;-52
2022/01/15 08:13:03;;;;;;;6.28;4.25;;;2.50;91.60;;;;;;5092936;28;20354;-52
2022/01/15 08:15:31;;;;;;;10.05;5.05;;;2.50;91.60;;;;;;5103142;28;20074;-54
2022/01/15 08:17:58;;;;;;;16.40;6.55;;;2.50;91.40;;;;;;5097149;28;20031;-52
2022/01/15 08:20:25;;;;;;;9.35;5.55;;;2.50;91.30;;;;;;5112414;28;20023;-54
2022/01/15 08:22:52;;;;;;;9.90;5.60;;;2.60;91.40;;;;;;5114614;28;20437;-50
2022/01/15 08:25:24;;;;;;;7.07;5.10;;;2.70;91.40;;;;;;5105640;28;20032;-53
2022/01/15 08:27:52;;;;;;;10.32;4.80;;;2.70;91.40;;;;;;5094893;28;20019;-54
2022/01/15 08:30:23;;;;;;;9.68;5.70;;;2.70;91.10;;;;;;5097321;28;20081;-53
2022/01/15 08:32:49;;;;;;;8.35;4.18;;;2.70;91.20;;;;;;5113875;28;20119;-53
2022/01/15 08:35:16;;;;;;;9.25;4.43;;;2.70;91.00;;;;;;5096046;28;20032;-51
2022/01/15 08:37:42;;;;;;;7.50;3.78;;;2.70;91.10;;;;;;5112601;28;20054;-52
2022/01/15 08:40:12;;;;;;;8.32;4.10;;;2.80;91.10;;;;;;5100275;28;20445;-56
2022/01/15 08:42:39;;;;;;;6.15;3.63;;;2.80;91.10;;;;;;5106180;28;20035;-54
2022/01/15 08:45:08;;;;;;;5.43;3.92;;;2.90;91.10;;;;;;5114535;28;20028;-51
2022/01/15 08:47:35;;;;;;;6.83;4.37;;;2.90;91.00;;;;;;5114211;28;20053;-56
2022/01/15 08:50:03;;;;;;;5.53;3.80;;;2.90;91.00;;;;;;5105025;28;20364;-52
2022/01/15 08:52:30;;;;;;;8.02;3.42;;;2.90;90.90;;;;;;5095158;28;20039;-52
2022/01/15 08:54:57;;;;;;;26.38;5.57;;;2.90;91.10;;;;;;5108257;28;20037;-52
2022/01/15 08:57:24;;;;;;;12.45;3.22;;;2.90;91.00;;;;;;5108853;28;20047;-53
2022/01/15 08:59:51;;;;;;;4.63;3.05;;;2.90;91.00;;;;;;5097177;28;20505;-52
2022/01/15 09:02:16;;;;;;;6.72;3.00;;;2.90;91.10;;;;;;5084884;28;20043;-52
2022/01/15 09:04:44;;;;;;;5.30;3.50;;;3.00;91.10;;;;;;5103777;28;20039;-51
2022/01/15 09:07:10;;;;;;;5.72;3.90;;;3.00;91.20;;;;;;5102700;28;20084;-51
2022/01/15 09:09:36;;;;;;;5.88;3.70;;;3.10;91.20;;;;;;5086430;28;20110;-50
2022/01/15 09:12:03;;;;;;;6.32;4.32;;;3.20;91.30;;;;;;5108669;28;20176;-49
2022/01/15 09:14:30;;;;;;;5.93;4.00;;;3.40;91.30;;;;;;5110348;28;20036;-49
2022/01/15 09:16:57;;;;;;;8.40;4.55;;;3.50;91.40;;;;;;5094155;28;20116;-48
2022/01/15 09:19:24;;;;;;;6.30;3.90;;;3.60;91.30;;;;;;5094054;28;20036;-50
2022/01/15 09:21:51;;;;;;;7.10;4.68;;;3.60;91.20;;;;;;5102238;28;20032;-48
2022/01/15 09:24:18;;;;;;;6.55;3.75;;;3.70;91.40;;;;;;5095974;28;20028;-50
2022/01/15 09:32:09;;;;;;;21.90;7.95;;;4.20;91.20;;;;;;5093914;28;20106;-48
2022/01/15 09:34:36;;;;;;;11.30;6.10;;;4.20;90.80;;;;;;5093222;28;20393;-48
2022/01/15 09:37:04;;;;;;;8.80;5.18;;;4.10;90.30;;;;;;5113890;28;20054;-48
2022/01/15 09:39:31;;;;;;;11.48;5.25;;;4.20;90.50;;;;;;5100568;28;20070;-48
2022/01/15 09:41:58;;;;;;;7.50;4.95;;;4.20;90.20;;;;;;5112211;28;20505;-48
2022/01/15 09:44:26;;;;;;;7.38;4.57;;;4.20;90.40;;;;;;5090150;28;20035;-47
2022/01/15 09:46:53;;;;;;;8.40;4.97;;;4.30;90.50;;;;;;5093484;28;20071;-47
2022/01/15 09:49:23;;;;;;;8.23;4.53;;;4.40;90.50;;;;;;5094641;28;20035;-46
2022/01/15 09:51:50;;;;;;;10.65;5.60;;;4.50;90.60;;;;;;5094717;28;20016;-47
2022/01/15 09:54:18;;;;;;;8.70;5.13;;;4.60;90.50;;;;;;5095139;28;20034;-47
2022/01/15 09:56:49;;;;;;;9.02;5.55;;;4.60;90.40;;;;;;5113407;28;20043;-47
2022/01/15 09:59:17;;;;;;;11.05;6.78;;;4.60;90.30;;;;;;5103242;28;20036;-47
2022/01/15 10:01:43;;;;;;;14.40;8.55;;;4.60;90.50;;;;;;5093472;28;20063;-47
2022/01/15 10:04:10;;;;;;;12.68;6.70;;;4.60;90.60;;;;;;5106554;28;20892;-47
2022/01/15 10:07:28;;;;;;;10.02;5.53;;;4.60;90.60;;;;;;5092463;28;20036;-46
2022/01/15 10:09:55;;;;;;;10.05;5.38;;;4.70;90.80;;;;;;5080554;28;20036;-46
2022/01/15 10:12:32;;;;;;;10.93;6.03;;;4.80;90.90;;;;;;5105769;27;20028;-46
2022/01/15 10:15:06;;;;;;;13.93;6.55;;;4.90;90.90;;;;;;5092656;28;20103;-46
2022/01/15 10:17:36;;;;;;;11.88;7.10;;;5.00;90.70;;;;;;5111302;28;20039;-46
2022/01/15 10:20:09;;;;;;;9.65;5.38;;;5.10;90.60;;;;;;5110969;28;20100;-45
2022/01/15 10:22:42;;;;;;;7.60;4.57;;;5.00;90.50;;;;;;5087586;28;20032;-48
2022/01/15 10:25:14;;;;;;;8.38;5.57;;;5.00;90.50;;;;;;5104496;28;20027;-46
2022/01/15 10:27:55;;;;;;;8.13;5.38;;;5.00;90.60;;;;;;5100757;28;20023;-45
2022/01/15 10:30:44;;;;;;;7.40;4.65;;;5.10;90.70;;;;;;5081371;28;20028;-46
2022/01/15 10:33:10;;;;;;;10.77;5.50;;;5.10;90.70;;;;;;5104267;28;20069;-46
2022/01/15 10:35:43;;;;;;;7.53;5.43;;;5.20;90.80;;;;;;5110448;28;20115;-45
2022/01/15 10:38:19;;;;;;;10.98;6.43;;;5.20;91.00;;;;;;5081773;28;20133;-45
2022/01/15 10:40:53;;;;;;;19.27;7.60;;;5.20;91.00;;;;;;5092811;28;20085;-49
2022/01/15 10:43:30;;;;;;;14.95;7.40;;;5.20;91.20;;;;;;5100551;28;20032;-46
2022/01/15 10:45:59;;;;;;;11.27;7.00;;;5.30;91.20;;;;;;5083665;28;20461;-46
2022/01/15 10:48:44;;;;;;;9.15;6.68;;;5.30;91.40;;;;;;5099890;28;20060;-46
2022/01/15 10:51:11;;;;;;;12.70;6.60;;;5.40;91.40;;;;;;5081336;28;20032;-45
2022/01/15 10:53:46;;;;;;;12.25;7.30;;;5.40;91.50;;;;;;5094188;28;20028;-45
2022/01/15 10:56:15;;;;;;;12.90;7.28;;;5.50;91.50;;;;;;5078871;28;20027;-47
2022/01/15 10:58:42;;;;;;;20.77;10.57;;;5.60;91.60;;;;;;5078937;28;20035;-45
2022/01/15 11:01:13;;;;;;;14.15;7.80;;;5.70;91.60;;;;;;5099978;28;20058;-45
2022/01/15 11:04:00;;;;;;;14.88;7.72;;;5.70;91.60;;;;;;5102748;28;20073;-44
2022/01/15 11:06:39;;;;;;;15.80;7.05;;;5.80;91.70;;;;;;5096779;28;20039;-46
2022/01/15 11:09:06;;;;;;;15.25;6.10;;;5.90;91.70;;;;;;5112483;28;20035;-45
2022/01/15 11:11:32;;;;;;;16.95;6.45;;;5.90;91.50;;;;;;5114385;28;20092;-46
2022/01/15 11:14:00;;;;;;;11.65;6.10;;;5.90;91.30;;;;;;5114343;28;20417;-45
2022/01/15 11:16:25;;;;;;;15.73;6.53;;;5.90;91.30;;;;;;5116779;28;20356;-44
2022/01/15 11:18:54;;;;;;;14.85;6.57;;;5.90;91.00;;;;;;5116016;28;20034;-45
2022/01/15 11:21:22;;;;;;;20.83;7.90;;;5.90;91.00;;;;;;5108534;28;20392;-45
2022/01/15 11:23:50;;;;;;;14.25;6.55;;;6.00;91.10;;;;;;5095894;28;20027;-46
2022/01/15 11:26:24;;;;;;;18.88;7.45;;;6.10;91.00;;;;;;5113589;28;20032;-45
2022/01/15 11:28:53;;;;;;;15.60;8.45;;;6.00;90.90;;;;;;5107137;28;20019;-45
2022/01/15 11:31:23;;;;;;;20.00;7.43;;;6.00;90.80;;;;;;5116335;28;20031;-44
2022/01/15 11:33:53;;;;;;;20.40;6.30;;;6.10;90.60;;;;;;5100217;28;20384;-44
2022/01/15 11:36:30;;;;;;;14.60;6.28;;;6.10;90.50;;;;;;5098358;28;20129;-45
2022/01/15 11:38:57;;;;;;;14.50;6.13;;;6.20;90.10;;;;;;5095671;28;20372;-46
2022/01/15 11:41:26;;;;;;;15.95;6.53;;;6.30;90.00;;;;;;5100311;28;20040;-46
2022/01/15 11:44:06;;;;;;;13.60;5.32;;;6.40;89.90;;;;;;5095515;28;20032;-45
2022/01/15 11:46:38;;;;;;;17.90;6.13;;;6.40;89.50;;;;;;5114237;28;20123;-46
2022/01/15 11:49:35;;;;;;;13.35;6.18;;;6.50;89.40;;;;;;5115570;28;20055;-46
2022/01/15 11:52:14;;;;;;;12.95;5.63;;;6.50;89.10;;;;;;5082824;28;20110;-45
2022/01/15 11:54:54;;;;;;;14.90;6.40;;;6.60;89.20;;;;;;5114009;28;20422;-45
2022/01/15 11:57:23;;;;;;;15.95;6.53;;;6.70;89.00;;;;;;5110548;28;20028;-44
2022/01/15 11:59:55;;;;;;;11.05;5.25;;;6.60;88.60;;;;;;5096854;28;20036;-45
2022/01/15 12:02:33;;;;;;;12.50;5.22;;;6.70;88.60;;;;;;5099392;28;20077;-44
2022/01/15 12:05:17;;;;;;;11.23;5.22;;;6.80;88.60;;;;;;5108955;28;20673;-46
2022/01/15 12:08:01;;;;;;;11.95;4.35;;;6.80;88.40;;;;;;5077221;28;20063;-44
2022/01/15 12:10:47;;;;;;;9.57;3.92;;;6.70;87.70;;;;;;5102848;28;20038;-44
2022/01/15 12:13:18;;;;;;;10.95;4.85;;;6.70;87.90;;;;;;5115416;28;20035;-47
2022/01/15 12:15:44;;;;;;;11.73;4.82;;;6.60;87.70;;;;;;5101336;28;20020;-45
2022/01/15 12:18:21;;;;;;;8.18;3.80;;;6.60;87.80;;;;;;5095340;28;20327;-45
2022/01/15 12:20:54;;;;;;;9.52;4.28;;;6.60;88.10;;;;;;5090551;28;20084;-43
2022/01/15 12:23:26;;;;;;;10.95;4.85;;;6.50;87.70;;;;;;5115243;28;20314;-45
2022/01/15 12:25:57;;;;;;;9.48;4.57;;;6.50;88.00;;;;;;5113725;28;20055;-45
2022/01/15 12:28:27;;;;;;;8.30;4.40;;;6.60;88.10;;;;;;5106372;28;20050;-44
2022/01/15 12:30:57;;;;;;;6.70;4.28;;;6.60;88.00;;;;;;5092769;28;20361;-47
2022/01/15 12:33:24;;;;;;;10.75;4.72;;;6.50;88.10;;;;;;5107807;28;20084;-46
2022/01/15 12:35:53;;;;;;;12.20;5.63;;;6.70;88.40;;;;;;5085787;28;20030;-45
2022/01/15 12:38:28;;;;;;;11.00;5.10;;;6.70;88.00;;;;;;5106869;28;20064;-45
2022/01/15 12:40:59;;;;;;;16.20;5.55;;;6.80;88.10;;;;;;5098316;28;20088;-47
2022/01/15 12:43:36;;;;;;;11.45;5.25;;;6.70;87.90;;;;;;5075122;28;20181;-44
2022/01/15 12:46:07;;;;;;;9.82;5.03;;;6.70;88.10;;;;;;5088237;28;20031;-44
2022/01/15 12:48:45;;;;;;;12.77;5.03;;;6.80;88.10;;;;;;5090527;28;20040;-46
2022/01/15 12:51:22;;;;;;;9.30;5.15;;;6.80;88.20;;;;;;5082459;28;21614;-44
2022/01/15 12:54:05;;;;;;;9.48;3.90;;;6.80;88.30;;;;;;5087710;28;20043;-44
2022/01/15 12:56:38;;;;;;;10.20;4.43;;;6.70;88.20;;;;;;5072391;28;20035;-43
2022/01/15 12:59:05;;;;;;;9.63;3.53;;;6.80;88.40;;;;;;5103472;28;20050;-45
2022/01/15 13:01:32;;;;;;;13.15;4.22;;;6.80;88.50;;;;;;5100042;28;20050;-45
2022/01/15 13:04:09;;;;;;;9.80;4.47;;;6.80;88.10;;;;;;5104146;28;20048;-44
2022/01/15 13:06:35;;;;;;;9.43;4.32;;;6.80;87.90;;;;;;5096266;28;20090;-46
2022/01/15 13:09:01;;;;;;;8.10;4.50;;;6.70;87.80;;;;;;5099856;28;20039;-44
2022/01/15 13:11:31;;;;;;;8.57;4.38;;;6.70;87.80;;;;;;5112302;28;20024;-43
2022/01/15 13:14:04;;;;;;;7.05;4.63;;;6.80;87.80;;;;;;5109938;28;20036;-45
2022/01/15 13:16:32;;;;;;;10.55;3.95;;;6.70;87.50;;;;;;5080238;28;20024;-46
2022/01/15 13:19:03;;;;;;;10.07;4.90;;;6.70;87.40;;;;;;5105623;28;20036;-43
2022/01/15 13:21:36;;;;;;;13.38;5.53;;;6.70;87.30;;;;;;5089131;28;20024;-46
2022/01/15 13:24:20;;;;;;;11.50;5.00;;;6.60;87.50;;;;;;5106966;28;20031;-44
2022/01/15 13:26:48;;;;;;;10.70;5.03;;;6.60;87.50;;;;;;5101255;28;20040;-44
2022/01/15 13:29:22;;;;;;;9.60;5.00;;;6.50;87.70;;;;;;5103528;28;20020;-43